Home > Products > Valid Products > TAF

000
FTUS45 KTWC 011100
TAFOLS
TAF
KOLS 011127Z 0112/0212 VRB03KT P6SM SKC
     FM012000 26011KT P6SM SKC
     FM020300 VRB03KT P6SM SKC=



000
FTUS45 KTWC 011100
TAFDUG
TAF
KDUG 011127Z 0112/0212 VRB03KT P6SM SKC
     FM011900 27013G20KT P6SM SKC
     FM020300 34005KT P6SM SKC=



000
FTUS45 KTWC 011100
TAFOLS
TAF
KOLS 011127Z 0112/0212 VRB03KT P6SM SKC
     FM012000 26011KT P6SM SKC
     FM020300 VRB03KT P6SM SKC=



000
FTUS45 KTWC 011100
TAFTUS
TAF
KTUS 011127Z 0112/0212 14008KT P6SM SKC
     FM012000 31008KT P6SM SKC
     FM020400 20005KT P6SM SKC
     FM020700 15005KT P6SM SKC=



000
FTUS45 KTWC 010500
TAFTUS
TAF
KTUS 010520Z 0106/0206 VRB03KT P6SM SKC
     FM010700 14007KT P6SM SKC
     FM012000 31008KT P6SM SKC=



000
FTUS45 KTWC 010500
TAFOLS
TAF
KOLS 010520Z 0106/0206 08006KT P6SM SKC
     FM010700 VRB03KT P6SM SKC
     FM012000 26011KT P6SM SKC=



000
FTUS45 KTWC 010500
TAFDUG
TAF
KDUG 010520Z 0106/0206 35005KT P6SM SKC
     FM011000 VRB03KT P6SM SKC
     FM011900 27012G19KT P6SM SKC=



000
FTUS45 KTWC 010500
TAFOLS
TAF
KOLS 010520Z 0106/0206 08006KT P6SM SKC
     FM010700 VRB03KT P6SM SKC
     FM012000 26011KT P6SM SKC=



000
FTUS45 KTWC 302300
TAFOLS
TAF
KOLS 302331Z 0100/0124 25011KT P6SM SKC
     FM010300 08006KT P6SM SKC
     FM010700 VRB03KT P6SM SKC
     FM012000 26011KT P6SM SKC=



000
FTUS45 KTWC 302300
TAFDUG
TAF
KDUG 302331Z 0100/0124 23013G20KT P6SM SKC
     FM010300 35008KT P6SM SKC
     FM011000 VRB03KT P6SM SKC
     FM011900 27012G19KT P6SM SKC=



000
FTUS45 KTWC 302300
TAFTUS
TAF
KTUS 302331Z 0100/0124 32010KT P6SM SKC
     FM010300 22005KT P6SM SKC
     FM010700 14007KT P6SM SKC
     FM012000 31008KT P6SM SKC=



000
FTUS45 KTWC 302300
TAFOLS
TAF
KOLS 302331Z 0100/0124 25011KT P6SM SKC
     FM010300 08006KT P6SM SKC
     FM010700 VRB03KT P6SM SKC
     FM012000 26011KT P6SM SKC=



000
FTUS45 KTWC 301700
TAFDUG
TAF
KDUG 301720Z 3018/0118 VRB03KT P6SM SKC
     FM302000 28012G20KT P6SM SKC
     FM010300 28008KT P6SM SKC
     FM010700 VRB04KT P6SM SKC=



000
FTUS45 KTWC 301700
TAFOLS
TAF
KOLS 301720Z 3018/0118 VRB03KT P6SM SKC
     FM301900 25011KT P6SM SKC
     FM010400 VRB04KT P6SM SKC=



000
FTUS45 KTWC 301700
TAFTUS
TAF
KTUS 301720Z 3018/0118 VRB04KT P6SM SKC
     FM302100 32008KT P6SM SKC
     FM010400 20005KT P6SM SKC
     FM010700 15005KT P6SM SKC
     FM011600 VRB04KT P6SM SKC=



000
FTUS45 KTWC 301700
TAFOLS
TAF
KOLS 301720Z 3018/0118 VRB03KT P6SM SKC
     FM301900 25011KT P6SM SKC
     FM010400 VRB04KT P6SM SKC=



000
FTUS45 KTWC 301100
TAFTUS
TAF
KTUS 301128Z 3012/0112 14007KT P6SM SKC
     FM302000 32008KT P6SM SKC
     FM010400 20005KT P6SM SKC
     FM010700 15005KT P6SM SKC=



000
FTUS45 KTWC 301100
TAFDUG
TAF
KDUG 301128Z 3012/0112 VRB03KT P6SM SKC
     FM301900 28012G20KT P6SM SKC
     FM010300 28008KT P6SM SKC
     FM010700 VRB04KT P6SM SKC=



000
FTUS45 KTWC 301100
TAFOLS
TAF
KOLS 301128Z 3012/0112 VRB03KT P6SM SKC
     FM301900 25011KT P6SM SKC
     FM010400 VRB04KT P6SM SKC=



000
FTUS45 KTWC 301100
TAFOLS
TAF
KOLS 301128Z 3012/0112 VRB03KT P6SM SKC
     FM301900 25011KT P6SM SKC
     FM010400 VRB04KT P6SM SKC=



000
FTUS45 KTWC 300500
TAFOLS
TAF
KOLS 300523Z 3006/0106 08006KT P6SM FEW250
     FM301000 VRB03KT P6SM SKC
     FM301900 25011KT P6SM SKC=



000
FTUS45 KTWC 300500
TAFDUG
TAF
KDUG 300523Z 3006/0106 04006KT P6SM FEW200
     FM301000 VRB03KT P6SM SKC
     FM301900 28012G20KT P6SM SKC=



000
FTUS45 KTWC 300500
TAFTUS
TAF
KTUS 300523Z 3006/0106 21005KT P6SM SKC
     FM300800 14007KT P6SM SKC
     FM302000 32008KT P6SM SKC=



000
FTUS45 KTWC 300500
TAFOLS
TAF
KOLS 300523Z 3006/0106 08006KT P6SM FEW250
     FM301000 VRB03KT P6SM SKC
     FM301900 25011KT P6SM SKC=



000
FTUS45 KTWC 292300
TAFOLS
TAF
KOLS 292320Z 3000/3024 23009KT P6SM FEW060
     FM300300 VRB03KT P6SM SKC
     FM301900 24009KT P6SM SKC=



000
FTUS45 KTWC 292300
TAFDUG
TAF
KDUG 292320Z 3000/3024 24011KT P6SM SCT070
     FM300500 VRB04KT P6SM SKC
     FM301900 24011KT P6SM SKC=



000
FTUS45 KTWC 292300
TAFOLS
TAF
KOLS 292320Z 3000/3024 23009KT P6SM FEW060
     FM300300 VRB03KT P6SM SKC
     FM301900 24009KT P6SM SKC=



000
FTUS45 KTWC 292300
TAFTUS
TAF
KTUS 292320Z 3000/3024 27009KT P6SM FEW060
     FM300800 14004KT P6SM SKC
     FM301900 27008KT P6SM SKC=



000
FTUS45 KTWC 292100 AAA
TAFDUG
TAF AMD
KDUG 292131Z 2922/3018 26011KT P6SM SCT040
     FM300500 VRB04KT P6SM SKC=



000
FTUS45 KTWC 292100 AAA
TAFOLS
TAF AMD
KOLS 292130Z 2922/3018 26009KT P6SM SCT060
     FM300300 VRB03KT P6SM SKC=



000
FTUS45 KTWC 292100 AAA
TAFOLS
TAF AMD
KOLS 292130Z 2922/3018 26009KT P6SM SCT060
     FM300300 VRB03KT P6SM SKC=



000
FTUS45 KTWC 292100 AAA
TAFTUS
TAF AMD
KTUS 292129Z 2921/3018 32009KT P6SM FEW060
     FM300800 14004KT P6SM SKC=



000
FTUS45 KTWC 291700
TAFTUS
TAF
KTUS 291735Z 2918/3018 29008KT P6SM SCT060
     FM292000 29009G16KT P6SM FEW060
     FM300300 30005KT P6SM SKC
     FM300800 14004KT P6SM SKC=



000
FTUS45 KTWC 291700
TAFOLS
TAF
KOLS 291735Z 2918/3018 20008KT P6SM SCT040
     FM292000 22012G18KT P6SM FEW040
     FM300100 26007KT P6SM SKC
     FM300300 VRB03KT P6SM SKC=



000
FTUS45 KTWC 291700
TAFDUG
TAF
KDUG 291735Z 2918/3018 19008KT P6SM SCT040
     FM291900 24015G23KT P6SM SCT040
     FM300100 28011KT P6SM FEW040
     FM300500 VRB04KT P6SM SKC=



000
FTUS45 KTWC 291700
TAFOLS
TAF
KOLS 291735Z 2918/3018 20008KT P6SM SCT040
     FM292000 22012G18KT P6SM FEW040
     FM300100 26007KT P6SM SKC
     FM300300 VRB03KT P6SM SKC=



000
FTUS45 KTWC 291100
TAFOLS
TAF
KOLS 291135Z 2912/3012 VRB04KT P6SM FEW050
     FM291700 20008KT P6SM SCT050
     FM292000 22013G20KT P6SM FEW050
     FM300100 21007KT P6SM SKC
     FM300300 VRB03KT P6SM SKC=



000
FTUS45 KTWC 291100
TAFOLS
TAF
KOLS 291135Z 2912/3012 VRB04KT P6SM FEW050
     FM291700 20008KT P6SM SCT050
     FM292000 22013G20KT P6SM FEW050
     FM300100 21007KT P6SM SKC
     FM300300 VRB03KT P6SM SKC=



000
FTUS45 KTWC 291100
TAFDUG
TAF
KDUG 291135Z 2912/3012 08005KT P6SM FEW030
     FM291600 19008KT P6SM SCT040
     FM291900 24015G25KT P6SM SCT040
     FM300100 27011KT P6SM FEW040
     FM300500 33005KT P6SM SKC=



000
FTUS45 KTWC 291100
TAFTUS
TAF
KTUS 291135Z 2912/3012 15006KT P6SM SCT060
     FM291800 25008KT P6SM SCT070
     FM292100 29011KT P6SM FEW070
     FM300300 32005KT P6SM SKC
     FM300800 14006KT P6SM SKC=



000
FTUS45 KTWC 290500
TAFOLS
TAF
KOLS 290520Z 2906/3006 19007KT P6SM FEW035
     FM290900 VRB03KT P6SM SKC
     FM291900 23011KT P6SM FEW090 SCT250=



000
FTUS45 KTWC 290500
TAFOLS
TAF
KOLS 290520Z 2906/3006 19007KT P6SM FEW035
     FM290900 VRB03KT P6SM SKC
     FM291900 23011KT P6SM FEW090 SCT250=



000
FTUS45 KTWC 290500
TAFTUS
TAF
KTUS 290520Z 2906/3006 VRB03KT P6SM SKC
     FM290700 14007KT P6SM SKC
     FM292000 30008KT P6SM FEW100 SCT250=



000
FTUS45 KTWC 290500
TAFDUG
TAF
KDUG 290520Z 2906/3006 VRB03KT P6SM SKC
     FM291000 16005KT P6SM SKC
     FM291900 24012G18KT P6SM SCT080 SCT250=



000
FTUS45 KTWC 282300
TAFDUG
TAF
KDUG 282320Z 2900/2924 22010KT P6SM SCT070
     FM290500 16005KT P6SM SKC
     FM291600 20008KT P6SM FEW070=



000
FTUS45 KTWC 282300
TAFOLS
TAF
KOLS 282320Z 2900/2924 19007KT P6SM FEW070
     FM290400 VRB03KT P6SM SKC
     FM291700 23007KT P6SM SKC=



000
FTUS45 KTWC 282300
TAFTUS
TAF
KTUS 282320Z 2900/2924 22009KT P6SM SCT080
     FM290500 15005KT P6SM SKC
     FM291700 25006KT P6SM SKC=



000
FTUS45 KTWC 282300
TAFOLS
TAF
KOLS 282320Z 2900/2924 19007KT P6SM FEW070
     FM290400 VRB03KT P6SM SKC
     FM291700 23007KT P6SM SKC=



000
FTUS45 KTWC 281700
TAFOLS
TAF
KOLS 281732Z 2818/2918 18012G18KT P6SM SCT020 BKN040
      TEMPO 2818/2820 BKN025
     FM282000 21015G24KT P6SM SCT070
     FM290100 19007KT P6SM FEW070
     FM290400 VRB03KT P6SM SKC
     FM291700 23007KT P6SM SKC=



000
FTUS45 KTWC 281700
TAFDUG
TAF
KDUG 281732Z 2818/2918 19012G18KT P6SM BKN060
     FM282000 21014G22KT P6SM SCT070
     FM290100 22007KT P6SM FEW070
     FM290500 16005KT P6SM SKC
     FM291600 20007KT P6SM SKC=



000
FTUS45 KTWC 281700
TAFOLS
TAF
KOLS 281732Z 2818/2918 18012G18KT P6SM SCT020 BKN040
      TEMPO 2818/2820 BKN025
     FM282000 21015G24KT P6SM SCT070
     FM290100 19007KT P6SM FEW070
     FM290400 VRB03KT P6SM SKC
     FM291700 23007KT P6SM SKC=



000
FTUS45 KTWC 281700
TAFTUS
TAF
KTUS 281732Z 2818/2918 20012G20KT P6SM SCT040
     FM282100 23014G22KT P6SM FEW050
     FM290100 24009KT P6SM SKC
     FM290500 15005KT P6SM SKC
     FM291700 25006KT P6SM SKC=



000
FTUS45 KTWC 281600 AAA
TAFDUG
TAF AMD
KDUG 281643Z 2817/2912 16012G18KT P6SM BKN060
     FM282000 21014G22KT P6SM SCT070
     FM290100 22007KT P6SM FEW070
     FM290500 14005KT P6SM SKC=



000
FTUS45 KTWC 281600 AAA
TAFOLS
TAF AMD
KOLS 281635Z 2817/2912 18012G18KT P6SM SCT020 BKN040
      TEMPO 2817/2820 BKN025
     FM282000 21015G24KT P6SM SCT070
     FM290100 18007KT P6SM FEW070
     FM290400 VRB03KT P6SM SKC=



000
FTUS45 KTWC 281600 AAA
TAFOLS
TAF AMD
KOLS 281635Z 2817/2912 18012G18KT P6SM SCT020 BKN040
      TEMPO 2817/2820 BKN025
     FM282000 21015G24KT P6SM SCT070
     FM290100 18007KT P6SM FEW070
     FM290400 VRB03KT P6SM SKC=



000
FTUS45 KTWC 281600 AAA
TAFTUS
TAF AMD
KTUS 281633Z 2817/2912 19012G20KT P6SM SCT040
     FM282100 22014G22KT P6SM FEW050
     FM290100 24009KT P6SM SKC
     FM290500 16005KT P6SM SKC=



    US Dept of Commerce
    National Oceanic and Atmospheric Administration
    National Weather Service
    1325 East West Highway
    Silver Spring, MD 20910
    Page Author: NWS Internet Services Team
Disclaimer
Information Quality
Credits
Glossary
Privacy Policy
Freedom of Information Act (FOIA)
About Us
Career Opportunities